Time;durP1;ratioP1;P1;durP2;ratioP2;P2;SDS_P1;SDS_P2;PMS_P1;PMS_P2;Temp;Humidity;BMP_temperature;BMP_pressure;BME280_temperature;BME280_humidity;BME280_pressure;Samples;Min_cycle;Max_cycle;Signal;HPM_P1;HPM_P2
2021/04/24 00:01:51;;;;;;;10.60;6.00;;;8.20;99.90;;;;;;5136664;27;20198;-65
2021/04/24 00:04:16;;;;;;;10.10;5.53;;;8.10;99.90;;;;;;5136363;27;20439;-67
2021/04/24 00:06:42;;;;;;;7.30;4.90;;;7.90;99.90;;;;;;5136519;27;20671;-65
2021/04/24 00:09:08;;;;;;;9.10;5.23;;;8.00;99.90;;;;;;5117328;28;20191;-65
2021/04/24 00:11:35;;;;;;;12.27;6.03;;;7.90;99.90;;;;;;5136146;27;20260;-68
2021/04/24 00:14:00;;;;;;;8.60;6.05;;;8.00;99.90;;;;;;5117826;27;20281;-65
2021/04/24 00:16:26;;;;;;;8.00;5.20;;;7.90;99.90;;;;;;5117796;27;20210;-65
2021/04/24 00:18:52;;;;;;;8.60;6.17;;;7.90;99.90;;;;;;5117594;27;20431;-67
2021/04/24 00:21:18;;;;;;;8.77;6.32;;;7.90;99.90;;;;;;5136282;27;20176;-67
2021/04/24 00:23:44;;;;;;;9.13;5.40;;;7.90;99.90;;;;;;5135974;27;20547;-65
2021/04/24 00:26:10;;;;;;;7.87;5.47;;;8.00;99.90;;;;;;5136003;27;20955;-68
2021/04/24 00:28:36;;;;;;;9.50;6.05;;;8.00;99.90;;;;;;5135929;27;20555;-66
2021/04/24 00:31:02;;;;;;;12.00;6.17;;;7.80;99.90;;;;;;5135801;27;20182;-67
2021/04/24 00:33:28;;;;;;;7.55;5.40;;;7.90;99.90;;;;;;5117352;27;20472;-67
2021/04/24 00:35:54;;;;;;;8.90;5.40;;;7.80;99.90;;;;;;5135777;27;20183;-65
2021/04/24 00:38:20;;;;;;;11.33;6.10;;;7.80;99.90;;;;;;5135744;27;20183;-66
2021/04/24 00:40:46;;;;;;;9.87;6.20;;;7.90;99.90;;;;;;5135730;27;20416;-65
2021/04/24 00:43:16;;;;;;;12.57;6.30;;;7.90;99.90;;;;;;5135603;27;20969;-65
2021/04/24 00:45:41;;;;;;;7.13;4.65;;;7.80;99.90;;;;;;5135258;27;20316;-66
2021/04/24 00:48:08;;;;;;;8.00;4.80;;;7.80;99.90;;;;;;5135663;27;20243;-65
2021/04/24 00:50:36;;;;;;;9.55;6.53;;;7.80;99.90;;;;;;5117108;27;20664;-68
2021/04/24 00:53:03;;;;;;;9.75;5.68;;;7.80;99.90;;;;;;5116926;27;20206;-65
2021/04/24 00:55:28;;;;;;;8.00;5.10;;;7.80;99.90;;;;;;5135407;27;20267;-66
2021/04/24 00:57:55;;;;;;;13.90;6.50;;;7.80;99.90;;;;;;5135285;27;20290;-65
2021/04/24 01:00:22;;;;;;;14.00;5.25;;;7.80;99.90;;;;;;5116921;27;20257;-67
2021/04/24 01:02:53;;;;;;;9.02;5.38;;;7.80;99.90;;;;;;5135600;27;20282;-68
2021/04/24 01:05:24;;;;;;;11.38;4.72;;;7.80;99.90;;;;;;5135281;27;20162;-68
2021/04/24 01:07:50;;;;;;;8.00;5.25;;;7.80;99.90;;;;;;5135569;27;20219;-66
2021/04/24 01:10:17;;;;;;;10.40;5.80;;;7.70;99.90;;;;;;5135220;27;20163;-66
2021/04/24 01:12:44;;;;;;;6.43;4.70;;;7.70;99.90;;;;;;5135397;27;20191;-65
2021/04/24 01:15:11;;;;;;;10.90;5.22;;;7.70;99.90;;;;;;5135109;27;20173;-65
2021/04/24 01:17:39;;;;;;;14.13;5.85;;;7.60;99.90;;;;;;5135413;27;20708;-66
2021/04/24 01:20:05;;;;;;;9.85;5.95;;;7.70;99.90;;;;;;5134958;27;20198;-65
2021/04/24 01:22:31;;;;;;;9.10;5.30;;;7.80;99.90;;;;;;5135127;27;20179;-65
2021/04/24 01:24:57;;;;;;;8.10;5.10;;;7.80;99.90;;;;;;5134914;27;20189;-68
2021/04/24 01:27:23;;;;;;;6.63;4.80;;;7.80;99.90;;;;;;5135303;27;20210;-66
2021/04/24 01:29:49;;;;;;;9.70;5.40;;;7.90;99.90;;;;;;5134880;27;20692;-67
2021/04/24 01:32:14;;;;;;;6.97;5.80;;;7.90;99.90;;;;;;5135232;27;20893;-66
2021/04/24 01:34:40;;;;;;;8.03;4.53;;;7.80;99.90;;;;;;5134694;27;20657;-68
2021/04/24 01:37:06;;;;;;;13.07;5.17;;;7.90;99.90;;;;;;5135035;27;20525;-67
2021/04/24 01:39:31;;;;;;;13.10;6.07;;;7.90;99.90;;;;;;5116350;28;20198;-65
2021/04/24 01:41:57;;;;;;;8.77;5.00;;;7.90;99.90;;;;;;5116102;27;20179;-68
2021/04/24 01:44:23;;;;;;;12.70;5.80;;;7.80;99.90;;;;;;5134708;27;20258;-66
2021/04/24 01:46:49;;;;;;;9.95;5.53;;;7.80;99.90;;;;;;5134684;28;20991;-67
2021/04/24 01:49:15;;;;;;;6.90;4.90;;;7.90;99.90;;;;;;5116210;28;20206;-66
2021/04/24 01:51:41;;;;;;;12.50;5.60;;;7.90;99.90;;;;;;5134752;28;20511;-66
2021/04/24 01:54:08;;;;;;;8.60;5.30;;;7.90;99.90;;;;;;5134560;27;20183;-65
2021/04/24 01:56:52;;;;;;;10.20;5.53;;;8.00;99.90;;;;;;5134800;28;20521;-65
2021/04/24 01:59:21;;;;;;;8.77;6.10;;;7.90;99.90;;;;;;5134629;27;20561;-67
2021/04/24 02:01:49;;;;;;;7.57;4.30;;;7.80;99.90;;;;;;5116196;28;20606;-67
2021/04/24 02:04:17;;;;;;;7.38;5.65;;;7.70;99.90;;;;;;5134508;27;20549;-67
2021/04/24 02:06:43;;;;;;;12.38;6.10;;;7.50;99.90;;;;;;5134639;28;20228;-66
2021/04/24 02:09:10;;;;;;;8.63;5.80;;;7.50;99.90;;;;;;5134540;27;20194;-65
2021/04/24 02:11:36;;;;;;;8.63;5.20;;;7.60;99.90;;;;;;5134656;28;20237;-66
2021/04/24 02:14:05;;;;;;;8.15;5.60;;;7.70;99.90;;;;;;5134437;27;20687;-67
2021/04/24 02:16:31;;;;;;;6.95;5.72;;;7.50;99.90;;;;;;5116005;28;20222;-67
2021/04/24 02:18:58;;;;;;;10.00;5.95;;;7.60;99.90;;;;;;5134299;27;20223;-67
2021/04/24 02:21:23;;;;;;;10.10;5.93;;;7.50;99.90;;;;;;5134442;28;20573;-65
2021/04/24 02:23:49;;;;;;;10.80;6.53;;;7.50;99.90;;;;;;5115764;28;20233;-65
2021/04/24 02:26:15;;;;;;;9.40;5.43;;;7.50;99.90;;;;;;5134404;28;20608;-66
2021/04/24 02:28:40;;;;;;;10.20;5.30;;;7.50;99.90;;;;;;5134230;27;20187;-65
2021/04/24 02:31:06;;;;;;;14.27;7.10;;;7.50;99.90;;;;;;5134371;28;20225;-65
2021/04/24 02:33:32;;;;;;;10.13;6.60;;;7.40;99.90;;;;;;5117460;27;20246;-65
2021/04/24 02:35:59;;;;;;;10.47;5.70;;;7.40;99.90;;;;;;5119747;27;20446;-65
2021/04/24 02:38:31;;;;;;;10.18;5.95;;;7.30;99.90;;;;;;5138045;27;20194;-66
2021/04/24 02:41:53;;;;;;;9.18;5.50;;;7.20;99.90;;;;;;5138107;27;20624;-67
2021/04/24 02:44:18;;;;;;;12.75;5.70;;;7.20;99.90;;;;;;5137907;27;20226;-68
2021/04/24 02:46:44;;;;;;;8.63;6.10;;;7.20;99.90;;;;;;5137921;27;20637;-65
2021/04/24 02:49:09;;;;;;;13.03;5.90;;;7.20;99.90;;;;;;5119411;27;20183;-68
2021/04/24 02:51:35;;;;;;;11.47;5.50;;;7.10;99.90;;;;;;5137992;27;20175;-66
2021/04/24 02:54:01;;;;;;;9.13;5.90;;;7.00;99.90;;;;;;5137790;27;20183;-65
2021/04/24 02:56:26;;;;;;;9.17;6.00;;;7.10;99.90;;;;;;5137927;27;20543;-67
2021/04/24 02:58:52;;;;;;;12.40;6.53;;;7.10;99.90;;;;;;5137632;27;20237;-68
2021/04/24 03:01:17;;;;;;;9.37;6.90;;;7.10;99.90;;;;;;5137815;27;20179;-65
2021/04/24 03:03:43;;;;;;;12.67;5.67;;;7.10;99.90;;;;;;5137515;27;20675;-65
2021/04/24 03:06:08;;;;;;;9.33;5.63;;;7.10;99.90;;;;;;5137718;27;20210;-67
2021/04/24 03:08:34;;;;;;;11.17;5.07;;;7.10;99.90;;;;;;5137501;27;20262;-68
2021/04/24 03:11:01;;;;;;;10.43;6.23;;;7.00;99.90;;;;;;5118984;27;20185;-66
2021/04/24 03:13:26;;;;;;;28.30;16.00;;;7.10;99.90;;;;;;5137396;27;20183;-68
2021/04/24 03:15:52;;;;;;;38.03;16.80;;;7.20;99.90;;;;;;5137319;27;20175;-68
2021/04/24 03:18:17;;;;;;;55.60;28.53;;;7.10;99.90;;;;;;5137018;27;20222;-66
2021/04/24 03:20:43;;;;;;;48.63;21.30;;;7.10;99.90;;;;;;5137064;27;20216;-67
2021/04/24 03:23:09;;;;;;;177.57;69.27;;;7.00;99.90;;;;;;5136758;27;20582;-68
2021/04/24 03:25:35;;;;;;;189.35;71.25;;;7.00;99.90;;;;;;5136873;27;20175;-66
2021/04/24 03:28:00;;;;;;;179.00;69.87;;;7.10;99.90;;;;;;5137002;27;20580;-65
2021/04/24 03:30:26;;;;;;;164.77;67.43;;;7.10;99.90;;;;;;5118611;27;20171;-68
2021/04/24 03:32:52;;;;;;;61.40;32.97;;;7.00;99.90;;;;;;5118695;27;20214;-67
2021/04/24 03:35:18;;;;;;;11.53;7.73;;;7.10;99.90;;;;;;5118512;27;20936;-68
2021/04/24 03:37:43;;;;;;;9.37;6.20;;;7.10;99.90;;;;;;5118534;27;20225;-66
2021/04/24 03:40:10;;;;;;;7.00;5.27;;;7.00;99.90;;;;;;5136767;27;20651;-66
2021/04/24 03:42:36;;;;;;;8.07;4.68;;;6.90;99.90;;;;;;5118353;27;20188;-67
2021/04/24 03:45:03;;;;;;;6.23;4.60;;;6.90;99.90;;;;;;5136637;27;20311;-66
2021/04/24 03:47:29;;;;;;;7.65;5.13;;;6.80;99.90;;;;;;5136403;27;20266;-67
2021/04/24 03:49:55;;;;;;;7.70;4.70;;;6.80;99.90;;;;;;5136646;27;20227;-66
2021/04/24 03:52:20;;;;;;;6.55;4.80;;;6.80;99.90;;;;;;5136870;27;20582;-65
2021/04/24 03:54:46;;;;;;;8.93;5.33;;;6.80;99.90;;;;;;5136644;27;20167;-67
2021/04/24 03:57:11;;;;;;;6.90;4.50;;;6.80;99.90;;;;;;5136983;27;20179;-65
2021/04/24 03:59:37;;;;;;;5.40;4.40;;;6.80;99.90;;;;;;5136443;27;20248;-67
2021/04/24 04:02:03;;;;;;;7.80;5.47;;;6.80;99.90;;;;;;5118218;27;20183;-67
2021/04/24 04:04:28;;;;;;;6.40;5.30;;;6.80;99.90;;;;;;5136438;27;20642;-66
2021/04/24 04:06:54;;;;;;;6.90;4.70;;;6.80;99.90;;;;;;5117966;27;20225;-65
2021/04/24 04:09:19;;;;;;;6.87;5.00;;;6.80;99.90;;;;;;5117930;27;20225;-66
2021/04/24 04:11:45;;;;;;;7.17;5.60;;;6.80;99.90;;;;;;5117954;27;20247;-67
2021/04/24 04:14:10;;;;;;;8.40;5.13;;;6.80;99.90;;;;;;5117864;27;20190;-66
2021/04/24 04:16:36;;;;;;;8.40;4.53;;;6.70;99.90;;;;;;5136153;27;20195;-65
2021/04/24 04:19:02;;;;;;;5.30;4.00;;;6.80;99.90;;;;;;5136060;27;20191;-65
2021/04/24 04:21:27;;;;;;;7.10;5.43;;;6.80;99.90;;;;;;5136282;27;20665;-65
2021/04/24 04:23:53;;;;;;;10.07;3.90;;;6.90;99.90;;;;;;5135932;27;20427;-67
2021/04/24 04:26:19;;;;;;;5.20;3.93;;;6.90;99.90;;;;;;5117505;27;20214;-65
2021/04/24 04:28:45;;;;;;;8.18;4.03;;;6.90;99.90;;;;;;5135840;27;20278;-65
2021/04/24 04:31:11;;;;;;;8.60;4.83;;;7.00;99.90;;;;;;5135942;27;20215;-67
2021/04/24 04:33:36;;;;;;;9.37;4.33;;;7.00;99.90;;;;;;5135763;27;20191;-65
2021/04/24 04:36:04;;;;;;;5.17;4.27;;;6.90;99.90;;;;;;5135924;27;20758;-65
2021/04/24 04:38:31;;;;;;;8.27;4.43;;;7.00;99.90;;;;;;5117335;27;20667;-67
2021/04/24 04:40:56;;;;;;;5.55;4.07;;;7.00;99.90;;;;;;5117282;27;20511;-67
2021/04/24 04:43:22;;;;;;;7.30;4.13;;;6.90;99.90;;;;;;5117140;27;20286;-65
2021/04/24 04:45:48;;;;;;;7.17;4.43;;;7.00;99.90;;;;;;5135225;27;20175;-65
2021/04/24 04:48:13;;;;;;;7.33;4.37;;;7.00;99.90;;;;;;5135637;27;20191;-65
2021/04/24 04:50:39;;;;;;;6.60;5.00;;;7.10;99.90;;;;;;5135531;27;20477;-66
2021/04/24 04:53:07;;;;;;;6.88;5.28;;;7.20;99.90;;;;;;5117054;27;20219;-66
2021/04/24 04:55:33;;;;;;;6.43;5.10;;;7.20;99.90;;;;;;5116363;27;20256;-68
2021/04/24 04:57:59;;;;;;;9.10;5.33;;;7.20;99.90;;;;;;5135390;27;20234;-66
2021/04/24 05:00:25;;;;;;;14.13;9.23;;;7.30;99.90;;;;;;5135381;27;20403;-67
2021/04/24 05:02:51;;;;;;;15.50;9.23;;;7.30;99.90;;;;;;5135677;27;20568;-65
2021/04/24 05:05:17;;;;;;;11.33;6.60;;;7.40;99.90;;;;;;5135253;27;20199;-67
2021/04/24 05:07:43;;;;;;;12.50;5.57;;;7.50;99.90;;;;;;5135471;27;20227;-65
2021/04/24 05:10:10;;;;;;;6.60;3.85;;;7.50;99.90;;;;;;5135213;27;20228;-65
2021/04/24 05:12:35;;;;;;;7.30;4.20;;;7.60;99.90;;;;;;5135410;27;20640;-67
2021/04/24 05:15:01;;;;;;;6.13;4.10;;;7.70;99.90;;;;;;5116698;27;20182;-67
2021/04/24 05:17:28;;;;;;;11.82;4.20;;;7.80;99.90;;;;;;5135391;27;20183;-65
2021/04/24 05:19:54;;;;;;;6.70;4.53;;;7.90;99.90;;;;;;5134967;27;20271;-67
2021/04/24 05:22:19;;;;;;;5.50;4.80;;;8.00;99.90;;;;;;5135251;27;20199;-67
2021/04/24 05:24:45;;;;;;;9.40;4.67;;;8.00;99.90;;;;;;5134878;27;20167;-66
2021/04/24 05:27:10;;;;;;;6.60;4.10;;;8.10;99.90;;;;;;5135214;27;20260;-65
2021/04/24 05:29:36;;;;;;;5.57;3.90;;;8.10;99.90;;;;;;5116428;27;20306;-68
2021/04/24 05:32:03;;;;;;;7.43;5.03;;;8.20;99.90;;;;;;5135140;27;20179;-66
2021/04/24 05:34:29;;;;;;;7.63;4.25;;;8.20;99.90;;;;;;5134736;27;20179;-65
2021/04/24 05:36:55;;;;;;;6.10;4.43;;;8.30;99.90;;;;;;5115799;28;20179;-66
2021/04/24 05:39:21;;;;;;;5.20;3.77;;;8.40;99.90;;;;;;5134310;27;20190;-65
2021/04/24 05:41:46;;;;;;;6.27;4.27;;;8.40;99.90;;;;;;5132840;27;20423;-65
2021/04/24 05:44:12;;;;;;;6.70;4.27;;;8.50;99.90;;;;;;5132771;27;20191;-65
2021/04/24 05:46:38;;;;;;;4.80;4.40;;;8.60;99.90;;;;;;5113848;28;20622;-65
2021/04/24 05:49:03;;;;;;;7.77;4.20;;;8.70;99.90;;;;;;5114059;28;20194;-65
2021/04/24 05:51:30;;;;;;;13.20;6.97;;;8.80;99.90;;;;;;5132712;28;20224;-67
2021/04/24 05:53:56;;;;;;;11.73;6.50;;;8.90;99.90;;;;;;5134393;27;20275;-65
2021/04/24 05:56:22;;;;;;;8.60;6.37;;;9.00;99.90;;;;;;5116205;28;20210;-67
2021/04/24 05:58:51;;;;;;;16.05;9.52;;;9.00;99.90;;;;;;5134517;27;20195;-65
2021/04/24 06:01:18;;;;;;;7.65;4.63;;;9.20;99.90;;;;;;5134738;28;20258;-65
2021/04/24 06:03:43;;;;;;;8.80;5.50;;;9.30;99.90;;;;;;5134495;27;20255;-67
2021/04/24 06:06:09;;;;;;;10.57;6.00;;;9.50;99.90;;;;;;5134589;28;20218;-66
2021/04/24 06:08:35;;;;;;;12.10;5.97;;;9.60;99.90;;;;;;5136287;27;20204;-68
2021/04/24 06:11:00;;;;;;;15.87;9.50;;;9.80;99.90;;;;;;5138738;27;20267;-65
2021/04/24 06:13:29;;;;;;;10.47;6.83;;;9.90;99.90;;;;;;5138620;27;20260;-68
2021/04/24 06:15:55;;;;;;;8.63;5.28;;;10.00;99.90;;;;;;5138539;27;20245;-65
2021/04/24 06:18:22;;;;;;;6.72;5.13;;;10.20;99.90;;;;;;5138515;27;20183;-65
2021/04/24 06:20:48;;;;;;;6.15;4.60;;;10.30;99.90;;;;;;5138423;27;20662;-67
2021/04/24 06:23:14;;;;;;;9.47;4.70;;;10.40;99.90;;;;;;5119882;27;20191;-66
2021/04/24 06:25:40;;;;;;;6.28;5.20;;;10.50;99.90;;;;;;5138307;27;20660;-65
2021/04/24 06:28:06;;;;;;;7.95;5.40;;;10.60;99.90;;;;;;5138355;27;20270;-66
2021/04/24 06:30:31;;;;;;;7.60;5.23;;;10.80;99.90;;;;;;5119696;27;20650;-66
2021/04/24 06:32:57;;;;;;;11.90;5.20;;;10.90;99.90;;;;;;5119691;27;20276;-66
2021/04/24 06:35:25;;;;;;;9.17;5.17;;;11.10;99.90;;;;;;5138212;27;20173;-68
2021/04/24 06:37:52;;;;;;;7.40;4.68;;;11.20;99.90;;;;;;5138525;27;20435;-66
2021/04/24 06:40:18;;;;;;;6.22;4.47;;;11.30;99.90;;;;;;5138079;27;20171;-66
2021/04/24 06:42:44;;;;;;;6.88;4.40;;;11.30;99.90;;;;;;5138436;27;20199;-68
2021/04/24 06:45:11;;;;;;;8.80;5.18;;;11.50;99.90;;;;;;5119573;27;20175;-68
2021/04/24 06:47:37;;;;;;;7.35;4.68;;;11.50;99.90;;;;;;5137559;27;20580;-66
2021/04/24 06:50:05;;;;;;;7.47;4.93;;;11.60;99.90;;;;;;5137998;27;20183;-67
2021/04/24 06:52:31;;;;;;;11.32;4.93;;;11.70;99.90;;;;;;5138059;27;20210;-66
2021/04/24 06:54:56;;;;;;;5.37;4.37;;;11.70;99.90;;;;;;5137769;27;20637;-68
2021/04/24 06:57:22;;;;;;;8.97;4.97;;;12.00;99.90;;;;;;5138096;27;20258;-68
2021/04/24 06:59:48;;;;;;;7.57;4.63;;;12.10;99.90;;;;;;5119286;27;20219;-68
2021/04/24 07:02:13;;;;;;;6.70;4.90;;;12.10;99.90;;;;;;5119399;27;20684;-66
2021/04/24 07:04:39;;;;;;;7.13;4.70;;;12.20;99.90;;;;;;5118994;27;20293;-68
2021/04/24 07:07:06;;;;;;;5.93;4.03;;;12.30;99.90;;;;;;5137450;27;20551;-67
2021/04/24 07:09:32;;;;;;;7.60;5.30;;;12.50;99.90;;;;;;5137475;27;20191;-66
2021/04/24 07:11:58;;;;;;;6.15;4.45;;;12.70;99.90;;;;;;5137682;27;20179;-68
2021/04/24 07:14:23;;;;;;;7.47;5.33;;;12.80;99.90;;;;;;5137375;27;20247;-68
2021/04/24 07:16:49;;;;;;;7.00;5.37;;;13.00;99.90;;;;;;5118803;27;20179;-68
2021/04/24 07:19:15;;;;;;;9.47;5.40;;;13.20;99.90;;;;;;5136851;27;20609;-68
2021/04/24 07:21:41;;;;;;;7.97;4.63;;;13.20;99.90;;;;;;5118931;27;20206;-67
2021/04/24 07:24:07;;;;;;;6.80;4.70;;;13.40;99.90;;;;;;5137323;27;20195;-67
2021/04/24 07:26:33;;;;;;;5.67;4.03;;;13.20;99.90;;;;;;5137358;27;20571;-66
2021/04/24 07:28:58;;;;;;;7.97;5.30;;;13.30;99.90;;;;;;5137072;27;20423;-67
2021/04/24 07:31:24;;;;;;;7.17;4.40;;;13.50;99.90;;;;;;5137223;27;20416;-66
2021/04/24 07:33:50;;;;;;;9.40;4.90;;;13.70;98.50;;;;;;5136872;27;20676;-67
2021/04/24 07:36:16;;;;;;;6.67;4.40;;;13.50;98.20;;;;;;5137137;27;20258;-68
2021/04/24 07:38:41;;;;;;;9.70;5.70;;;13.40;98.90;;;;;;5137174;27;20190;-66
2021/04/24 07:41:07;;;;;;;5.60;4.80;;;13.60;99.50;;;;;;5136982;27;20420;-67
2021/04/24 07:43:33;;;;;;;6.77;4.30;;;13.80;98.70;;;;;;5136853;27;20343;-68
2021/04/24 07:45:59;;;;;;;6.90;4.50;;;14.00;98.10;;;;;;5118166;27;20719;-68
2021/04/24 07:48:24;;;;;;;6.43;4.77;;;13.90;97.10;;;;;;5118383;27;20276;-66
2021/04/24 07:50:50;;;;;;;6.83;4.37;;;13.80;96.10;;;;;;5118304;27;20332;-68
2021/04/24 07:53:17;;;;;;;8.90;4.73;;;14.00;96.10;;;;;;5136579;27;20274;-66
2021/04/24 07:55:42;;;;;;;7.63;4.30;;;14.10;95.30;;;;;;5136518;27;20183;-66
2021/04/24 07:58:09;;;;;;;4.50;4.10;;;14.00;94.90;;;;;;5136566;27;20426;-66
2021/04/24 08:00:36;;;;;;;5.20;4.70;;;13.80;95.00;;;;;;5117974;27;20170;-67
2021/04/24 08:03:02;;;;;;;6.50;4.73;;;13.80;94.40;;;;;;5136298;27;20415;-69
2021/04/24 08:05:28;;;;;;;6.70;4.30;;;13.90;94.90;;;;;;5117930;27;20495;-66
2021/04/24 08:07:53;;;;;;;6.90;4.50;;;14.30;96.00;;;;;;5117927;27;20573;-67
2021/04/24 08:10:19;;;;;;;8.13;4.80;;;14.50;94.90;;;;;;5136472;27;20232;-67
2021/04/24 08:12:46;;;;;;;6.43;4.27;;;14.70;94.70;;;;;;5117968;27;20199;-67
2021/04/24 08:15:13;;;;;;;7.07;3.93;;;15.10;93.40;;;;;;5136277;27;20208;-66
2021/04/24 08:17:38;;;;;;;5.93;3.90;;;15.00;91.60;;;;;;5136480;27;20522;-67
2021/04/24 08:20:06;;;;;;;5.90;4.27;;;14.70;92.00;;;;;;5117739;27;20971;-68
2021/04/24 08:22:32;;;;;;;6.03;3.80;;;15.00;91.80;;;;;;5136548;27;20187;-68
2021/04/24 08:24:58;;;;;;;5.13;4.10;;;14.90;90.40;;;;;;5136025;27;20399;-70
2021/04/24 08:27:23;;;;;;;5.43;3.87;;;15.50;91.60;;;;;;5136248;27;20217;-68
2021/04/24 08:29:49;;;;;;;7.77;5.40;;;15.60;90.80;;;;;;5117445;27;20648;-68
2021/04/24 08:32:14;;;;;;;6.00;4.20;;;15.30;90.30;;;;;;5117016;27;20183;-67
2021/04/24 08:34:40;;;;;;;4.73;3.30;;;15.10;89.80;;;;;;5135703;27;20191;-68
2021/04/24 08:37:08;;;;;;;7.33;3.53;;;15.80;89.80;;;;;;5133466;27;20175;-67
2021/04/24 08:39:34;;;;;;;4.47;3.83;;;15.80;87.70;;;;;;5134585;27;20195;-68
2021/04/24 08:41:59;;;;;;;5.50;4.70;;;15.70;87.30;;;;;;5135445;27;20437;-67
2021/04/24 08:44:25;;;;;;;5.57;3.73;;;15.60;91.20;;;;;;5135344;27;20509;-68
2021/04/24 08:46:51;;;;;;;5.00;3.47;;;15.80;88.90;;;;;;5113384;28;20650;-69
2021/04/24 08:49:20;;;;;;;7.57;5.10;;;16.40;88.50;;;;;;5113170;28;20192;-66
2021/04/24 08:51:46;;;;;;;7.40;4.90;;;16.50;84.80;;;;;;5112717;28;20428;-68
2021/04/24 08:54:12;;;;;;;8.47;5.07;;;16.10;84.70;;;;;;5113594;28;20873;-67
2021/04/24 08:56:38;;;;;;;6.07;4.40;;;15.80;87.10;;;;;;5114457;28;20424;-66
2021/04/24 08:59:05;;;;;;;4.70;3.80;;;15.80;83.60;;;;;;5113802;28;20488;-66
2021/04/24 09:01:30;;;;;;;5.63;3.50;;;16.40;87.40;;;;;;5114974;28;20416;-67
2021/04/24 09:03:56;;;;;;;5.23;3.40;;;17.00;83.20;;;;;;5111781;28;20500;-68
2021/04/24 09:06:23;;;;;;;4.00;3.50;;;17.50;81.90;;;;;;5112666;28;20216;-67
2021/04/24 09:08:54;;;;;;;4.43;4.03;;;17.00;77.30;;;;;;5128236;27;20191;-68
2021/04/24 09:11:20;;;;;;;6.90;3.97;;;16.90;82.00;;;;;;5128302;27;20429;-68
2021/04/24 09:14:00;;;;;;;6.33;4.30;;;17.10;80.70;;;;;;5128212;27;20964;-69
2021/04/24 09:16:27;;;;;;;6.67;4.40;;;17.20;78.40;;;;;;5128444;27;20917;-66
2021/04/24 09:18:54;;;;;;;6.63;4.13;;;15.90;81.30;;;;;;5112894;28;20427;-68
2021/04/24 09:21:21;;;;;;;4.20;3.40;;;16.30;81.20;;;;;;5113957;28;20773;-69
2021/04/24 09:23:47;;;;;;;3.50;3.20;;;17.20;79.40;;;;;;5114376;28;20417;-68
2021/04/24 09:26:13;;;;;;;4.90;3.60;;;17.10;76.80;;;;;;5114471;28;20447;-68
2021/04/24 09:28:47;;;;;;;6.20;4.00;;;17.00;78.00;;;;;;5114312;28;20253;-68
2021/04/24 09:31:21;;;;;;;5.40;3.43;;;17.00;79.80;;;;;;5114442;28;20503;-67
2021/04/24 09:33:55;;;;;;;6.23;4.10;;;16.80;75.60;;;;;;5114327;28;20423;-66
2021/04/24 09:36:23;;;;;;;5.90;3.93;;;16.50;79.70;;;;;;5114490;28;20908;-67
2021/04/24 09:38:52;;;;;;;6.00;4.00;;;16.80;78.20;;;;;;5114225;28;20448;-66
2021/04/24 09:41:23;;;;;;;6.43;3.63;;;17.20;76.70;;;;;;5114423;28;20512;-68
2021/04/24 09:44:04;;;;;;;7.77;4.67;;;17.50;75.30;;;;;;5114095;28;20492;-67
2021/04/24 09:46:34;;;;;;;5.90;3.70;;;17.60;75.50;;;;;;5121632;27;20486;-66
2021/04/24 09:49:20;;;;;;;6.00;3.80;;;17.60;76.40;;;;;;5134702;27;20415;-69
2021/04/24 09:52:05;;;;;;;5.47;3.93;;;17.70;75.30;;;;;;5134891;28;20426;-67
2021/04/24 09:54:33;;;;;;;5.50;3.77;;;17.80;73.80;;;;;;5134633;27;20420;-68
2021/04/24 09:57:03;;;;;;;4.90;3.80;;;18.10;75.40;;;;;;5134855;28;20415;-67
2021/04/24 09:59:30;;;;;;;3.60;3.10;;;18.40;73.80;;;;;;5134552;27;20429;-67
2021/04/24 10:02:00;;;;;;;4.40;4.00;;;18.30;73.10;;;;;;5134899;28;20420;-67
2021/04/24 10:04:26;;;;;;;4.30;3.73;;;17.60;71.40;;;;;;5134513;27;20409;-66
2021/04/24 10:06:56;;;;;;;6.37;3.63;;;17.50;71.30;;;;;;5116167;28;20473;-67
2021/04/24 10:09:23;;;;;;;4.47;3.67;;;17.70;72.20;;;;;;5134405;27;20416;-67
2021/04/24 10:11:59;;;;;;;5.00;4.13;;;17.50;71.10;;;;;;5116086;28;20432;-66
2021/04/24 10:14:30;;;;;;;5.10;3.90;;;17.20;69.90;;;;;;5134531;27;20451;-67
2021/04/24 10:16:56;;;;;;;5.77;3.80;;;17.10;74.60;;;;;;5134689;28;20416;-66
2021/04/24 10:19:24;;;;;;;5.27;3.50;;;17.30;73.00;;;;;;5115806;28;20434;-66
2021/04/24 10:21:50;;;;;;;6.20;3.40;;;17.70;71.60;;;;;;5134634;28;20901;-68
2021/04/24 10:24:16;;;;;;;3.23;2.93;;;18.00;71.40;;;;;;5134266;27;20442;-68
2021/04/24 10:26:43;;;;;;;4.80;3.50;;;18.20;70.90;;;;;;5134438;28;20679;-69
2021/04/24 10:29:10;;;;;;;7.30;3.63;;;17.90;71.90;;;;;;5115819;28;20205;-69
2021/04/24 10:31:37;;;;;;;4.60;3.50;;;17.80;70.70;;;;;;5134522;28;20765;-69
2021/04/24 10:34:05;;;;;;;5.03;3.20;;;18.20;72.30;;;;;;5115831;28;20427;-69
2021/04/24 10:36:32;;;;;;;5.17;3.73;;;18.50;69.40;;;;;;5134458;28;20411;-68
2021/04/24 10:38:59;;;;;;;5.07;4.00;;;17.90;72.40;;;;;;5115693;28;20423;-68
2021/04/24 10:41:37;;;;;;;4.43;3.47;;;17.80;70.10;;;;;;5134454;28;20467;-66
2021/04/24 10:44:04;;;;;;;4.10;3.30;;;17.60;71.00;;;;;;5115745;28;20498;-69
2021/04/24 10:46:35;;;;;;;6.10;3.90;;;17.50;67.40;;;;;;5133853;28;20471;-68
2021/04/24 10:49:20;;;;;;;4.23;3.23;;;17.80;68.00;;;;;;5134267;27;20407;-67
2021/04/24 10:52:17;;;;;;;4.60;2.80;;;18.10;70.10;;;;;;5134309;28;20427;-68
2021/04/24 10:54:43;;;;;;;5.03;3.43;;;18.60;69.50;;;;;;5117509;27;20463;-66
2021/04/24 10:57:37;;;;;;;4.53;3.57;;;18.80;68.30;;;;;;5119531;27;20465;-67
2021/04/24 11:00:03;;;;;;;4.80;2.87;;;18.30;67.90;;;;;;5119305;27;20427;-69
2021/04/24 11:02:42;;;;;;;4.83;3.80;;;18.50;68.90;;;;;;5137937;27;20420;-68
2021/04/24 11:05:32;;;;;;;6.43;3.60;;;18.40;67.00;;;;;;5137680;27;20778;-69
2021/04/24 11:08:10;;;;;;;5.73;4.27;;;18.40;69.60;;;;;;5137430;27;20491;-68
2021/04/24 11:10:42;;;;;;;4.70;3.57;;;18.20;67.70;;;;;;5137461;27;20409;-69
2021/04/24 11:13:10;;;;;;;4.27;3.67;;;17.90;68.40;;;;;;5119028;27;20429;-67
2021/04/24 11:15:36;;;;;;;4.50;3.27;;;18.10;70.00;;;;;;5137409;27;20393;-68
2021/04/24 11:18:07;;;;;;;4.30;3.40;;;18.90;69.00;;;;;;5118959;27;20468;-66
2021/04/24 11:20:58;;;;;;;4.93;3.40;;;19.30;65.80;;;;;;5137398;27;20464;-67
2021/04/24 11:23:30;;;;;;;3.63;3.30;;;19.00;64.60;;;;;;5137342;27;20426;-66
2021/04/24 11:25:56;;;;;;;4.03;3.23;;;18.70;64.30;;;;;;5137286;27;20416;-69
2021/04/24 11:28:22;;;;;;;4.00;3.17;;;18.80;64.60;;;;;;5137072;27;20860;-68
2021/04/24 11:30:56;;;;;;;3.47;2.90;;;18.90;65.80;;;;;;5137008;27;20423;-67
2021/04/24 11:33:42;;;;;;;5.60;3.60;;;18.90;66.50;;;;;;5137112;27;20189;-70
2021/04/24 11:36:25;;;;;;;4.40;2.97;;;19.10;64.50;;;;;;5118443;27;20429;-66
2021/04/24 11:38:54;;;;;;;4.20;3.03;;;18.60;67.70;;;;;;5136816;27;20420;-67
2021/04/24 11:41:45;;;;;;;5.47;3.53;;;19.20;65.70;;;;;;5137020;27;20913;-66
2021/04/24 11:44:17;;;;;;;3.70;2.77;;;19.00;64.00;;;;;;5118510;27;20445;-67
2021/04/24 11:46:46;;;;;;;4.93;3.73;;;19.20;64.30;;;;;;5136393;27;20524;-67
2021/04/24 11:49:13;;;;;;;3.63;3.30;;;18.60;65.30;;;;;;5136779;27;20423;-66
2021/04/24 11:51:43;;;;;;;3.17;2.87;;;19.00;65.70;;;;;;5137007;27;20426;-67
2021/04/24 11:54:19;;;;;;;4.20;3.50;;;19.20;65.80;;;;;;5118559;27;20946;-66
2021/04/24 11:56:46;;;;;;;4.37;3.37;;;19.40;65.40;;;;;;5137033;27;20808;-69
2021/04/24 11:59:11;;;;;;;4.70;2.83;;;19.40;65.40;;;;;;5136629;27;20931;-69
2021/04/24 12:01:38;;;;;;;4.70;2.90;;;20.00;63.60;;;;;;5118068;27;20424;-69
2021/04/24 12:04:04;;;;;;;4.20;2.73;;;20.00;63.30;;;;;;5136472;27;20220;-68
2021/04/24 12:06:38;;;;;;;6.30;3.40;;;19.90;63.70;;;;;;5136611;27;20542;-67
2021/04/24 12:09:13;;;;;;;2.90;2.63;;;20.10;63.30;;;;;;5136384;27;20194;-67
2021/04/24 12:11:40;;;;;;;4.17;3.00;;;20.80;60.40;;;;;;5136753;27;20909;-66
2021/04/24 12:14:07;;;;;;;3.83;2.43;;;20.80;60.70;;;;;;5136385;27;20422;-67
2021/04/24 12:16:41;;;;;;;5.07;3.30;;;20.50;58.70;;;;;;5136157;27;20422;-70
2021/04/24 12:19:26;;;;;;;5.97;3.30;;;20.40;61.50;;;;;;5136226;27;21065;-68
2021/04/24 12:22:04;;;;;;;3.30;3.00;;;20.60;60.60;;;;;;5117823;27;20435;-69
2021/04/24 12:24:30;;;;;;;3.43;3.13;;;20.70;60.40;;;;;;5117640;27;20438;-68
2021/04/24 12:26:56;;;;;;;5.00;3.03;;;20.10;60.10;;;;;;5117578;27;20503;-68
2021/04/24 12:29:51;;;;;;;5.03;3.03;;;19.90;59.20;;;;;;5135963;27;20530;-67
2021/04/24 12:32:19;;;;;;;4.17;3.27;;;20.10;60.80;;;;;;5117624;27;20178;-66
2021/04/24 12:34:45;;;;;;;3.60;3.03;;;20.10;60.20;;;;;;5135881;27;20406;-67
2021/04/24 12:37:14;;;;;;;7.17;2.80;;;20.00;63.00;;;;;;5136222;27;20422;-70
2021/04/24 12:39:40;;;;;;;4.33;3.20;;;20.30;61.00;;;;;;5135780;27;20194;-67
2021/04/24 12:42:09;;;;;;;5.30;3.53;;;20.50;62.00;;;;;;5135768;27;20936;-68
2021/04/24 12:44:36;;;;;;;5.00;3.97;;;20.60;63.00;;;;;;5135677;27;20940;-69
2021/04/24 12:47:03;;;;;;;3.77;2.70;;;20.50;60.30;;;;;;5135372;27;20582;-67
2021/04/24 12:49:29;;;;;;;6.20;3.60;;;20.20;60.30;;;;;;5135691;27;20431;-68
2021/04/24 12:52:13;;;;;;;6.47;4.00;;;20.20;60.80;;;;;;5135779;27;20806;-69
2021/04/24 12:54:39;;;;;;;4.97;3.90;;;19.20;58.90;;;;;;5116884;27;20195;-67